sensor_id;sensor_type;location;lat;lon;timestamp;P1;durP1;ratioP1;P2;durP2;ratioP2
61702;SDS011;47622;47.726;3.298;2023-05-28T00:00:41;9.85;;;6.38;;
61702;SDS011;47622;47.726;3.298;2023-05-28T00:03:09;9.27;;;6.13;;
61702;SDS011;47622;47.726;3.298;2023-05-28T00:05:35;12.18;;;6.15;;
61702;SDS011;47622;47.726;3.298;2023-05-28T00:08:01;12.65;;;6.63;;
61702;SDS011;47622;47.726;3.298;2023-05-28T00:10:26;10.20;;;6.85;;
61702;SDS011;47622;47.726;3.298;2023-05-28T00:12:52;12.80;;;6.85;;
61702;SDS011;47622;47.726;3.298;2023-05-28T00:15:18;12.65;;;6.57;;
61702;SDS011;47622;47.726;3.298;2023-05-28T00:17:43;10.40;;;6.50;;
61702;SDS011;47622;47.726;3.298;2023-05-28T00:20:09;9.68;;;6.35;;
61702;SDS011;47622;47.726;3.298;2023-05-28T00:22:35;10.13;;;6.53;;
61702;SDS011;47622;47.726;3.298;2023-05-28T00:25:03;13.80;;;6.57;;
61702;SDS011;47622;47.726;3.298;2023-05-28T00:27:29;13.57;;;7.05;;
61702;SDS011;47622;47.726;3.298;2023-05-28T00:29:55;11.88;;;6.63;;
61702;SDS011;47622;47.726;3.298;2023-05-28T00:32:20;10.90;;;6.30;;
61702;SDS011;47622;47.726;3.298;2023-05-28T00:34:46;11.57;;;6.90;;
61702;SDS011;47622;47.726;3.298;2023-05-28T00:37:11;20.13;;;6.80;;
61702;SDS011;47622;47.726;3.298;2023-05-28T00:39:37;10.15;;;6.60;;
61702;SDS011;47622;47.726;3.298;2023-05-28T00:42:03;10.48;;;6.72;;
61702;SDS011;47622;47.726;3.298;2023-05-28T00:44:30;10.30;;;6.22;;
61702;SDS011;47622;47.726;3.298;2023-05-28T00:46:59;10.27;;;6.00;;
61702;SDS011;47622;47.726;3.298;2023-05-28T00:49:25;9.60;;;6.82;;
61702;SDS011;47622;47.726;3.298;2023-05-28T00:51:51;10.77;;;5.88;;
61702;SDS011;47622;47.726;3.298;2023-05-28T00:54:19;9.63;;;6.20;;
61702;SDS011;47622;47.726;3.298;2023-05-28T00:56:45;10.45;;;6.25;;
61702;SDS011;47622;47.726;3.298;2023-05-28T00:59:11;12.82;;;6.68;;
61702;SDS011;47622;47.726;3.298;2023-05-28T01:01:37;10.88;;;7.13;;
61702;SDS011;47622;47.726;3.298;2023-05-28T01:04:04;10.65;;;6.35;;
61702;SDS011;47622;47.726;3.298;2023-05-28T01:06:30;12.00;;;6.78;;
61702;SDS011;47622;47.726;3.298;2023-05-28T01:08:56;14.00;;;7.30;;
61702;SDS011;47622;47.726;3.298;2023-05-28T01:11:22;14.20;;;6.53;;
61702;SDS011;47622;47.726;3.298;2023-05-28T01:13:48;11.77;;;6.45;;
61702;SDS011;47622;47.726;3.298;2023-05-28T01:16:15;13.50;;;7.32;;
61702;SDS011;47622;47.726;3.298;2023-05-28T01:18:42;13.77;;;6.70;;
61702;SDS011;47622;47.726;3.298;2023-05-28T01:21:09;11.65;;;6.82;;
61702;SDS011;47622;47.726;3.298;2023-05-28T01:23:45;11.90;;;7.03;;
61702;SDS011;47622;47.726;3.298;2023-05-28T01:26:12;12.40;;;7.30;;
61702;SDS011;47622;47.726;3.298;2023-05-28T01:28:39;9.40;;;6.70;;
61702;SDS011;47622;47.726;3.298;2023-05-28T01:31:15;11.20;;;7.50;;
61702;SDS011;47622;47.726;3.298;2023-05-28T01:33:42;13.10;;;7.18;;
61702;SDS011;47622;47.726;3.298;2023-05-28T01:36:29;8.77;;;6.38;;
61702;SDS011;47622;47.726;3.298;2023-05-28T01:38:57;10.38;;;7.00;;
61702;SDS011;47622;47.726;3.298;2023-05-28T01:41:27;9.65;;;6.70;;
61702;SDS011;47622;47.726;3.298;2023-05-28T01:43:53;12.35;;;6.82;;
61702;SDS011;47622;47.726;3.298;2023-05-28T01:46:20;10.25;;;6.88;;
61702;SDS011;47622;47.726;3.298;2023-05-28T01:48:47;10.73;;;6.45;;
61702;SDS011;47622;47.726;3.298;2023-05-28T01:51:31;11.85;;;7.45;;
61702;SDS011;47622;47.726;3.298;2023-05-28T01:53:57;13.23;;;7.75;;
61702;SDS011;47622;47.726;3.298;2023-05-28T01:56:23;13.65;;;8.13;;
61702;SDS011;47622;47.726;3.298;2023-05-28T01:58:50;10.52;;;7.97;;
61702;SDS011;47622;47.726;3.298;2023-05-28T02:01:17;10.98;;;7.85;;
61702;SDS011;47622;47.726;3.298;2023-05-28T02:03:55;12.93;;;7.45;;
61702;SDS011;47622;47.726;3.298;2023-05-28T02:06:21;11.30;;;7.55;;
61702;SDS011;47622;47.726;3.298;2023-05-28T02:08:49;14.63;;;7.60;;
61702;SDS011;47622;47.726;3.298;2023-05-28T02:11:16;14.57;;;7.05;;
61702;SDS011;47622;47.726;3.298;2023-05-28T02:13:41;10.50;;;6.68;;
61702;SDS011;47622;47.726;3.298;2023-05-28T02:16:07;10.00;;;7.18;;
61702;SDS011;47622;47.726;3.298;2023-05-28T02:18:35;10.50;;;6.93;;
61702;SDS011;47622;47.726;3.298;2023-05-28T02:21:01;8.93;;;6.68;;
61702;SDS011;47622;47.726;3.298;2023-05-28T02:23:27;8.65;;;6.28;;
61702;SDS011;47622;47.726;3.298;2023-05-28T02:25:53;10.80;;;6.10;;
61702;SDS011;47622;47.726;3.298;2023-05-28T02:28:18;9.38;;;6.57;;
61702;SDS011;47622;47.726;3.298;2023-05-28T02:30:44;10.48;;;6.50;;
61702;SDS011;47622;47.726;3.298;2023-05-28T02:33:09;9.95;;;6.75;;
61702;SDS011;47622;47.726;3.298;2023-05-28T02:35:35;12.90;;;7.55;;
61702;SDS011;47622;47.726;3.298;2023-05-28T02:38:02;9.57;;;7.10;;
61702;SDS011;47622;47.726;3.298;2023-05-28T02:40:28;13.45;;;7.10;;
61702;SDS011;47622;47.726;3.298;2023-05-28T02:42:53;11.25;;;7.10;;
61702;SDS011;47622;47.726;3.298;2023-05-28T02:45:19;12.45;;;7.65;;
61702;SDS011;47622;47.726;3.298;2023-05-28T02:47:44;10.75;;;7.07;;
61702;SDS011;47622;47.726;3.298;2023-05-28T02:50:10;12.15;;;7.22;;
61702;SDS011;47622;47.726;3.298;2023-05-28T02:52:35;12.93;;;7.38;;
61702;SDS011;47622;47.726;3.298;2023-05-28T02:55:01;13.88;;;7.53;;
61702;SDS011;47622;47.726;3.298;2023-05-28T02:57:27;9.65;;;6.82;;
61702;SDS011;47622;47.726;3.298;2023-05-28T02:59:52;9.88;;;6.95;;
61702;SDS011;47622;47.726;3.298;2023-05-28T03:02:19;10.68;;;7.13;;
61702;SDS011;47622;47.726;3.298;2023-05-28T03:04:45;9.73;;;7.05;;
61702;SDS011;47622;47.726;3.298;2023-05-28T03:07:10;11.88;;;7.22;;
61702;SDS011;47622;47.726;3.298;2023-05-28T03:09:36;11.10;;;7.20;;
61702;SDS011;47622;47.726;3.298;2023-05-28T03:12:02;11.32;;;7.05;;
61702;SDS011;47622;47.726;3.298;2023-05-28T03:14:28;15.27;;;8.30;;
61702;SDS011;47622;47.726;3.298;2023-05-28T03:16:53;11.02;;;7.18;;
61702;SDS011;47622;47.726;3.298;2023-05-28T03:19:20;10.15;;;7.75;;
61702;SDS011;47622;47.726;3.298;2023-05-28T03:21:46;11.05;;;7.53;;
61702;SDS011;47622;47.726;3.298;2023-05-28T03:24:11;11.27;;;7.10;;
61702;SDS011;47622;47.726;3.298;2023-05-28T03:26:37;11.00;;;7.40;;
61702;SDS011;47622;47.726;3.298;2023-05-28T03:29:02;9.82;;;7.75;;
61702;SDS011;47622;47.726;3.298;2023-05-28T03:31:28;13.65;;;7.72;;
61702;SDS011;47622;47.726;3.298;2023-05-28T03:33:55;9.80;;;7.30;;
61702;SDS011;47622;47.726;3.298;2023-05-28T03:36:21;10.20;;;7.25;;
61702;SDS011;47622;47.726;3.298;2023-05-28T03:38:47;10.43;;;6.90;;
61702;SDS011;47622;47.726;3.298;2023-05-28T03:41:13;15.82;;;7.43;;
61702;SDS011;47622;47.726;3.298;2023-05-28T03:43:38;14.80;;;6.90;;
61702;SDS011;47622;47.726;3.298;2023-05-28T03:46:05;10.65;;;7.60;;
61702;SDS011;47622;47.726;3.298;2023-05-28T03:48:30;14.77;;;7.68;;
61702;SDS011;47622;47.726;3.298;2023-05-28T03:50:56;9.27;;;7.10;;
61702;SDS011;47622;47.726;3.298;2023-05-28T03:53:22;12.95;;;8.60;;
61702;SDS011;47622;47.726;3.298;2023-05-28T03:55:47;11.10;;;7.82;;
61702;SDS011;47622;47.726;3.298;2023-05-28T03:58:13;10.65;;;7.63;;
61702;SDS011;47622;47.726;3.298;2023-05-28T04:00:41;13.98;;;7.95;;
61702;SDS011;47622;47.726;3.298;2023-05-28T04:03:06;12.65;;;7.15;;
61702;SDS011;47622;47.726;3.298;2023-05-28T04:05:32;9.77;;;7.05;;
61702;SDS011;47622;47.726;3.298;2023-05-28T04:07:58;13.40;;;7.85;;
61702;SDS011;47622;47.726;3.298;2023-05-28T04:10:24;12.75;;;8.60;;
61702;SDS011;47622;47.726;3.298;2023-05-28T04:12:50;12.77;;;7.65;;
61702;SDS011;47622;47.726;3.298;2023-05-28T04:15:20;9.93;;;7.90;;
61702;SDS011;47622;47.726;3.298;2023-05-28T04:17:45;9.93;;;7.57;;
61702;SDS011;47622;47.726;3.298;2023-05-28T04:20:11;16.48;;;8.57;;
61702;SDS011;47622;47.726;3.298;2023-05-28T04:22:37;14.05;;;8.23;;
61702;SDS011;47622;47.726;3.298;2023-05-28T04:25:03;11.13;;;7.55;;
61702;SDS011;47622;47.726;3.298;2023-05-28T04:27:29;10.52;;;7.65;;
61702;SDS011;47622;47.726;3.298;2023-05-28T04:29:55;14.68;;;8.55;;
61702;SDS011;47622;47.726;3.298;2023-05-28T04:32:22;14.50;;;8.85;;
61702;SDS011;47622;47.726;3.298;2023-05-28T04:34:48;10.15;;;7.47;;
61702;SDS011;47622;47.726;3.298;2023-05-28T04:37:16;14.88;;;8.95;;
61702;SDS011;47622;47.726;3.298;2023-05-28T04:39:42;12.32;;;7.13;;
61702;SDS011;47622;47.726;3.298;2023-05-28T04:42:08;13.40;;;7.75;;
61702;SDS011;47622;47.726;3.298;2023-05-28T04:44:38;12.00;;;7.35;;
61702;SDS011;47622;47.726;3.298;2023-05-28T04:47:05;11.95;;;7.50;;
61702;SDS011;47622;47.726;3.298;2023-05-28T04:49:33;11.98;;;8.18;;
61702;SDS011;47622;47.726;3.298;2023-05-28T04:51:59;11.52;;;8.00;;
61702;SDS011;47622;47.726;3.298;2023-05-28T04:54:24;15.43;;;8.27;;
61702;SDS011;47622;47.726;3.298;2023-05-28T04:56:51;17.70;;;8.43;;
61702;SDS011;47622;47.726;3.298;2023-05-28T04:59:17;14.60;;;8.60;;
61702;SDS011;47622;47.726;3.298;2023-05-28T05:01:43;14.95;;;8.40;;
61702;SDS011;47622;47.726;3.298;2023-05-28T05:04:08;13.60;;;8.40;;
61702;SDS011;47622;47.726;3.298;2023-05-28T05:06:34;13.82;;;8.25;;
61702;SDS011;47622;47.726;3.298;2023-05-28T05:08:59;12.90;;;7.93;;
61702;SDS011;47622;47.726;3.298;2023-05-28T05:11:25;10.80;;;8.35;;
61702;SDS011;47622;47.726;3.298;2023-05-28T05:13:54;13.55;;;8.95;;
61702;SDS011;47622;47.726;3.298;2023-05-28T05:16:19;12.98;;;7.97;;
61702;SDS011;47622;47.726;3.298;2023-05-28T05:18:45;11.63;;;7.03;;
61702;SDS011;47622;47.726;3.298;2023-05-28T05:21:12;9.02;;;6.63;;
61702;SDS011;47622;47.726;3.298;2023-05-28T05:23:38;8.25;;;5.82;;
61702;SDS011;47622;47.726;3.298;2023-05-28T05:26:07;8.45;;;6.82;;
61702;SDS011;47622;47.726;3.298;2023-05-28T05:28:35;8.43;;;6.15;;
61702;SDS011;47622;47.726;3.298;2023-05-28T05:31:01;10.27;;;6.07;;
61702;SDS011;47622;47.726;3.298;2023-05-28T05:33:27;7.85;;;6.28;;
61702;SDS011;47622;47.726;3.298;2023-05-28T05:35:53;7.88;;;5.78;;
61702;SDS011;47622;47.726;3.298;2023-05-28T05:38:19;10.85;;;6.53;;
61702;SDS011;47622;47.726;3.298;2023-05-28T05:40:44;7.90;;;6.47;;
61702;SDS011;47622;47.726;3.298;2023-05-28T05:43:10;7.97;;;6.57;;
61702;SDS011;47622;47.726;3.298;2023-05-28T05:45:36;10.02;;;6.75;;
61702;SDS011;47622;47.726;3.298;2023-05-28T05:48:03;12.77;;;6.20;;
61702;SDS011;47622;47.726;3.298;2023-05-28T05:50:29;11.65;;;6.85;;
61702;SDS011;47622;47.726;3.298;2023-05-28T05:52:56;9.65;;;6.53;;
61702;SDS011;47622;47.726;3.298;2023-05-28T05:55:24;9.73;;;6.78;;
61702;SDS011;47622;47.726;3.298;2023-05-28T05:57:50;9.40;;;6.38;;
61702;SDS011;47622;47.726;3.298;2023-05-28T06:00:15;12.15;;;6.88;;
61702;SDS011;47622;47.726;3.298;2023-05-28T06:02:41;12.15;;;6.70;;
61702;SDS011;47622;47.726;3.298;2023-05-28T06:05:07;13.65;;;7.10;;
61702;SDS011;47622;47.726;3.298;2023-05-28T06:07:33;11.15;;;7.40;;
61702;SDS011;47622;47.726;3.298;2023-05-28T06:09:58;11.70;;;7.18;;
61702;SDS011;47622;47.726;3.298;2023-05-28T06:12:24;10.50;;;6.40;;
61702;SDS011;47622;47.726;3.298;2023-05-28T06:14:50;10.75;;;6.32;;
61702;SDS011;47622;47.726;3.298;2023-05-28T06:17:15;10.93;;;7.10;;
61702;SDS011;47622;47.726;3.298;2023-05-28T06:19:42;14.65;;;6.93;;
61702;SDS011;47622;47.726;3.298;2023-05-28T06:22:08;11.35;;;6.75;;
61702;SDS011;47622;47.726;3.298;2023-05-28T06:24:36;14.80;;;7.05;;
61702;SDS011;47622;47.726;3.298;2023-05-28T06:27:03;11.60;;;6.57;;
61702;SDS011;47622;47.726;3.298;2023-05-28T06:29:30;10.45;;;6.05;;
61702;SDS011;47622;47.726;3.298;2023-05-28T06:31:55;11.93;;;6.28;;
61702;SDS011;47622;47.726;3.298;2023-05-28T06:34:21;11.38;;;5.70;;
61702;SDS011;47622;47.726;3.298;2023-05-28T06:36:46;9.88;;;6.18;;
61702;SDS011;47622;47.726;3.298;2023-05-28T06:39:12;11.25;;;6.60;;
61702;SDS011;47622;47.726;3.298;2023-05-28T06:41:37;13.48;;;6.85;;
61702;SDS011;47622;47.726;3.298;2023-05-28T06:44:03;10.13;;;6.00;;
61702;SDS011;47622;47.726;3.298;2023-05-28T06:46:28;11.32;;;6.68;;
61702;SDS011;47622;47.726;3.298;2023-05-28T06:48:55;10.65;;;5.55;;
61702;SDS011;47622;47.726;3.298;2023-05-28T06:51:21;9.55;;;5.88;;
61702;SDS011;47622;47.726;3.298;2023-05-28T06:53:46;11.63;;;5.95;;
61702;SDS011;47622;47.726;3.298;2023-05-28T06:56:12;10.45;;;5.28;;
61702;SDS011;47622;47.726;3.298;2023-05-28T06:58:38;7.95;;;5.38;;
61702;SDS011;47622;47.726;3.298;2023-05-28T07:01:03;12.18;;;6.45;;
61702;SDS011;47622;47.726;3.298;2023-05-28T07:03:29;11.15;;;5.40;;
61702;SDS011;47622;47.726;3.298;2023-05-28T07:05:55;10.27;;;6.20;;
61702;SDS011;47622;47.726;3.298;2023-05-28T07:08:21;12.75;;;6.03;;
61702;SDS011;47622;47.726;3.298;2023-05-28T07:10:47;10.40;;;5.55;;
61702;SDS011;47622;47.726;3.298;2023-05-28T07:13:12;11.52;;;6.15;;
61702;SDS011;47622;47.726;3.298;2023-05-28T07:15:38;12.45;;;5.32;;
61702;SDS011;47622;47.726;3.298;2023-05-28T07:25:21;8.38;;;5.22;;
61702;SDS011;47622;47.726;3.298;2023-05-28T07:27:46;8.50;;;5.40;;
61702;SDS011;47622;47.726;3.298;2023-05-28T07:30:12;12.00;;;6.07;;
61702;SDS011;47622;47.726;3.298;2023-05-28T07:32:38;11.15;;;5.68;;
61702;SDS011;47622;47.726;3.298;2023-05-28T07:35:03;8.25;;;4.65;;
61702;SDS011;47622;47.726;3.298;2023-05-28T07:37:30;12.25;;;5.20;;
61702;SDS011;47622;47.726;3.298;2023-05-28T07:39:55;7.85;;;5.03;;
61702;SDS011;47622;47.726;3.298;2023-05-28T07:42:21;9.45;;;5.57;;
61702;SDS011;47622;47.726;3.298;2023-05-28T07:44:46;11.32;;;5.90;;
61702;SDS011;47622;47.726;3.298;2023-05-28T07:47:12;9.43;;;5.60;;
61702;SDS011;47622;47.726;3.298;2023-05-28T07:52:04;12.40;;;5.40;;
61702;SDS011;47622;47.726;3.298;2023-05-28T07:54:29;12.18;;;5.60;;
61702;SDS011;47622;47.726;3.298;2023-05-28T07:56:55;9.95;;;4.82;;
61702;SDS011;47622;47.726;3.298;2023-05-28T08:01:46;7.00;;;4.75;;
61702;SDS011;47622;47.726;3.298;2023-05-28T08:04:12;10.60;;;6.10;;
61702;SDS011;47622;47.726;3.298;2023-05-28T08:06:38;9.38;;;5.30;;
61702;SDS011;47622;47.726;3.298;2023-05-28T08:09:03;10.10;;;6.10;;
61702;SDS011;47622;47.726;3.298;2023-05-28T08:11:30;8.73;;;5.60;;
61702;SDS011;47622;47.726;3.298;2023-05-28T08:21:12;8.55;;;5.07;;
61702;SDS011;47622;47.726;3.298;2023-05-28T08:26:03;9.40;;;5.65;;
61702;SDS011;47622;47.726;3.298;2023-05-28T08:28:29;9.63;;;5.72;;
61702;SDS011;47622;47.726;3.298;2023-05-28T08:30:55;11.27;;;5.03;;
61702;SDS011;47622;47.726;3.298;2023-05-28T08:33:21;10.77;;;6.20;;
61702;SDS011;47622;47.726;3.298;2023-05-28T08:35:48;9.30;;;5.85;;
61702;SDS011;47622;47.726;3.298;2023-05-28T08:40:40;11.02;;;4.97;;
61702;SDS011;47622;47.726;3.298;2023-05-28T08:43:09;11.03;;;5.50;;
61702;SDS011;47622;47.726;3.298;2023-05-28T08:45:34;9.73;;;5.18;;
61702;SDS011;47622;47.726;3.298;2023-05-28T08:50:29;8.82;;;5.32;;
61702;SDS011;47622;47.726;3.298;2023-05-28T08:52:56;7.40;;;4.70;;
61702;SDS011;47622;47.726;3.298;2023-05-28T08:55:24;9.77;;;4.97;;
61702;SDS011;47622;47.726;3.298;2023-05-28T08:57:50;12.75;;;5.30;;
61702;SDS011;47622;47.726;3.298;2023-05-28T09:02:44;8.90;;;5.55;;
61702;SDS011;47622;47.726;3.298;2023-05-28T09:05:09;10.52;;;5.15;;
61702;SDS011;47622;47.726;3.298;2023-05-28T09:10:01;10.07;;;5.32;;
61702;SDS011;47622;47.726;3.298;2023-05-28T09:12:28;11.35;;;5.75;;
61702;SDS011;47622;47.726;3.298;2023-05-28T09:14:53;11.35;;;5.78;;
61702;SDS011;47622;47.726;3.298;2023-05-28T09:17:52;10.23;;;5.40;;
61702;SDS011;47622;47.726;3.298;2023-05-28T09:20:11;8.83;;;5.20;;
61702;SDS011;47622;47.726;3.298;2023-05-28T09:25:05;10.07;;;5.18;;
61702;SDS011;47622;47.726;3.298;2023-05-28T09:27:32;10.13;;;5.80;;
61702;SDS011;47622;47.726;3.298;2023-05-28T09:30:04;9.45;;;6.47;;
61702;SDS011;47622;47.726;3.298;2023-05-28T09:32:33;11.10;;;5.72;;
61702;SDS011;47622;47.726;3.298;2023-05-28T09:35:05;11.05;;;5.65;;
61702;SDS011;47622;47.726;3.298;2023-05-28T09:37:36;12.75;;;6.15;;
61702;SDS011;47622;47.726;3.298;2023-05-28T09:40:02;9.95;;;5.60;;
61702;SDS011;47622;47.726;3.298;2023-05-28T09:42:47;10.18;;;5.93;;
61702;SDS011;47622;47.726;3.298;2023-05-28T09:45:21;8.50;;;5.40;;
61702;SDS011;47622;47.726;3.298;2023-05-28T09:47:50;20.33;;;6.70;;
61702;SDS011;47622;47.726;3.298;2023-05-28T09:50:16;10.25;;;5.22;;
61702;SDS011;47622;47.726;3.298;2023-05-28T09:52:43;8.68;;;5.85;;
61702;SDS011;47622;47.726;3.298;2023-05-28T09:55:11;10.45;;;5.60;;
61702;SDS011;47622;47.726;3.298;2023-05-28T09:57:40;11.57;;;5.75;;
61702;SDS011;47622;47.726;3.298;2023-05-28T10:00:10;12.93;;;5.80;;
61702;SDS011;47622;47.726;3.298;2023-05-28T10:03:00;9.38;;;5.65;;
61702;SDS011;47622;47.726;3.298;2023-05-28T10:05:48;10.43;;;6.07;;
61702;SDS011;47622;47.726;3.298;2023-05-28T10:08:17;10.48;;;5.63;;
61702;SDS011;47622;47.726;3.298;2023-05-28T10:13:14;11.25;;;5.53;;
61702;SDS011;47622;47.726;3.298;2023-05-28T10:15:41;11.38;;;5.57;;
61702;SDS011;47622;47.726;3.298;2023-05-28T10:18:08;9.20;;;5.38;;
61702;SDS011;47622;47.726;3.298;2023-05-28T10:20:34;9.20;;;5.70;;
61702;SDS011;47622;47.726;3.298;2023-05-28T10:22:59;11.50;;;5.75;;
61702;SDS011;47622;47.726;3.298;2023-05-28T10:25:26;9.10;;;5.28;;
61702;SDS011;47622;47.726;3.298;2023-05-28T10:27:53;9.93;;;5.93;;
61702;SDS011;47622;47.726;3.298;2023-05-28T10:30:34;8.00;;;5.00;;
61702;SDS011;47622;47.726;3.298;2023-05-28T10:35:33;8.85;;;5.25;;
61702;SDS011;47622;47.726;3.298;2023-05-28T10:38:06;11.13;;;5.38;;
61702;SDS011;47622;47.726;3.298;2023-05-28T10:40:33;9.52;;;5.20;;
61702;SDS011;47622;47.726;3.298;2023-05-28T10:48:01;8.75;;;5.22;;
61702;SDS011;47622;47.726;3.298;2023-05-28T10:50:27;11.02;;;5.65;;
61702;SDS011;47622;47.726;3.298;2023-05-28T10:53:09;9.93;;;5.80;;
61702;SDS011;47622;47.726;3.298;2023-05-28T10:55:53;9.98;;;5.28;;
61702;SDS011;47622;47.726;3.298;2023-05-28T10:58:24;10.40;;;5.55;;
61702;SDS011;47622;47.726;3.298;2023-05-28T11:00:59;10.55;;;5.65;;
61702;SDS011;47622;47.726;3.298;2023-05-28T11:03:41;9.65;;;5.20;;
61702;SDS011;47622;47.726;3.298;2023-05-28T11:06:10;8.57;;;5.53;;
61702;SDS011;47622;47.726;3.298;2023-05-28T11:08:38;10.57;;;6.18;;
61702;SDS011;47622;47.726;3.298;2023-05-28T11:11:06;16.10;;;6.38;;
61702;SDS011;47622;47.726;3.298;2023-05-28T11:13:32;10.80;;;5.93;;
61702;SDS011;47622;47.726;3.298;2023-05-28T11:16:08;12.52;;;6.05;;
61702;SDS011;47622;47.726;3.298;2023-05-28T11:18:35;11.45;;;6.10;;
61702;SDS011;47622;47.726;3.298;2023-05-28T11:21:01;11.32;;;5.88;;
61702;SDS011;47622;47.726;3.298;2023-05-28T11:23:36;14.10;;;6.55;;
61702;SDS011;47622;47.726;3.298;2023-05-28T11:26:03;9.93;;;6.25;;
61702;SDS011;47622;47.726;3.298;2023-05-28T11:28:29;8.20;;;5.65;;
61702;SDS011;47622;47.726;3.298;2023-05-28T11:30:57;12.02;;;6.07;;
61702;SDS011;47622;47.726;3.298;2023-05-28T11:33:26;12.55;;;6.45;;
61702;SDS011;47622;47.726;3.298;2023-05-28T11:35:56;11.85;;;6.25;;
61702;SDS011;47622;47.726;3.298;2023-05-28T11:38:25;9.55;;;5.60;;
61702;SDS011;47622;47.726;3.298;2023-05-28T11:40:57;10.32;;;6.18;;
61702;SDS011;47622;47.726;3.298;2023-05-28T11:43:24;10.30;;;6.38;;
61702;SDS011;47622;47.726;3.298;2023-05-28T11:45:50;11.40;;;6.38;;
61702;SDS011;47622;47.726;3.298;2023-05-28T11:48:19;12.18;;;6.10;;
61702;SDS011;47622;47.726;3.298;2023-05-28T11:50:44;11.15;;;6.07;;
61702;SDS011;47622;47.726;3.298;2023-05-28T11:53:10;9.27;;;6.00;;
61702;SDS011;47622;47.726;3.298;2023-05-28T11:55:36;14.98;;;6.68;;
61702;SDS011;47622;47.726;3.298;2023-05-28T11:58:02;13.25;;;6.97;;
61702;SDS011;47622;47.726;3.298;2023-05-28T12:00:31;12.95;;;6.25;;
61702;SDS011;47622;47.726;3.298;2023-05-28T12:03:02;12.98;;;5.82;;
61702;SDS011;47622;47.726;3.298;2023-05-28T12:05:35;12.52;;;5.60;;
61702;SDS011;47622;47.726;3.298;2023-05-28T12:08:02;9.88;;;5.82;;
61702;SDS011;47622;47.726;3.298;2023-05-28T12:10:29;10.07;;;5.88;;
61702;SDS011;47622;47.726;3.298;2023-05-28T12:12:56;9.73;;;5.70;;
61702;SDS011;47622;47.726;3.298;2023-05-28T12:15:22;11.85;;;5.40;;
61702;SDS011;47622;47.726;3.298;2023-05-28T12:17:53;11.60;;;5.78;;
61702;SDS011;47622;47.726;3.298;2023-05-28T12:22:58;9.48;;;5.70;;
61702;SDS011;47622;47.726;3.298;2023-05-28T12:25:27;10.95;;;5.95;;
61702;SDS011;47622;47.726;3.298;2023-05-28T12:27:52;8.80;;;5.60;;
61702;SDS011;47622;47.726;3.298;2023-05-28T12:30:18;8.35;;;5.20;;
61702;SDS011;47622;47.726;3.298;2023-05-28T12:32:44;10.05;;;5.97;;
61702;SDS011;47622;47.726;3.298;2023-05-28T12:35:10;9.30;;;5.78;;
61702;SDS011;47622;47.726;3.298;2023-05-28T12:37:37;10.32;;;5.90;;
61702;SDS011;47622;47.726;3.298;2023-05-28T12:40:03;9.27;;;5.80;;
61702;SDS011;47622;47.726;3.298;2023-05-28T12:42:29;11.90;;;6.00;;
61702;SDS011;47622;47.726;3.298;2023-05-28T12:44:55;8.00;;;5.53;;
61702;SDS011;47622;47.726;3.298;2023-05-28T12:47:20;9.95;;;5.82;;
61702;SDS011;47622;47.726;3.298;2023-05-28T12:49:46;14.05;;;5.57;;
61702;SDS011;47622;47.726;3.298;2023-05-28T12:52:11;7.68;;;5.28;;
61702;SDS011;47622;47.726;3.298;2023-05-28T12:54:37;7.97;;;5.88;;
61702;SDS011;47622;47.726;3.298;2023-05-28T12:57:02;8.90;;;5.88;;
61702;SDS011;47622;47.726;3.298;2023-05-28T12:59:28;9.07;;;5.22;;
61702;SDS011;47622;47.726;3.298;2023-05-28T13:01:54;10.18;;;6.03;;
61702;SDS011;47622;47.726;3.298;2023-05-28T13:04:23;9.43;;;5.15;;
61702;SDS011;47622;47.726;3.298;2023-05-28T13:06:49;11.35;;;5.90;;
61702;SDS011;47622;47.726;3.298;2023-05-28T13:09:16;8.45;;;4.97;;
61702;SDS011;47622;47.726;3.298;2023-05-28T13:11:42;8.48;;;5.18;;
61702;SDS011;47622;47.726;3.298;2023-05-28T13:14:08;10.18;;;5.43;;
61702;SDS011;47622;47.726;3.298;2023-05-28T13:16:35;7.20;;;5.18;;
61702;SDS011;47622;47.726;3.298;2023-05-28T13:19:01;10.45;;;5.40;;
61702;SDS011;47622;47.726;3.298;2023-05-28T13:21:27;11.02;;;5.88;;
61702;SDS011;47622;47.726;3.298;2023-05-28T13:23:55;8.60;;;5.30;;
61702;SDS011;47622;47.726;3.298;2023-05-28T13:26:23;7.72;;;5.20;;
61702;SDS011;47622;47.726;3.298;2023-05-28T13:28:48;8.02;;;5.57;;
61702;SDS011;47622;47.726;3.298;2023-05-28T13:31:14;8.43;;;6.00;;
61702;SDS011;47622;47.726;3.298;2023-05-28T13:33:39;7.95;;;5.60;;
61702;SDS011;47622;47.726;3.298;2023-05-28T13:36:05;9.07;;;5.70;;
61702;SDS011;47622;47.726;3.298;2023-05-28T13:38:31;9.40;;;5.50;;
61702;SDS011;47622;47.726;3.298;2023-05-28T13:41:01;12.13;;;5.68;;
61702;SDS011;47622;47.726;3.298;2023-05-28T13:43:28;11.43;;;5.72;;
61702;SDS011;47622;47.726;3.298;2023-05-28T13:45:55;11.52;;;5.50;;
61702;SDS011;47622;47.726;3.298;2023-05-28T13:48:21;13.13;;;5.63;;
61702;SDS011;47622;47.726;3.298;2023-05-28T13:50:49;7.93;;;5.43;;
61702;SDS011;47622;47.726;3.298;2023-05-28T13:53:14;7.50;;;5.15;;
61702;SDS011;47622;47.726;3.298;2023-05-28T13:55:40;8.77;;;5.38;;
61702;SDS011;47622;47.726;3.298;2023-05-28T13:58:06;8.27;;;5.40;;
61702;SDS011;47622;47.726;3.298;2023-05-28T14:00:32;6.80;;;5.10;;
61702;SDS011;47622;47.726;3.298;2023-05-28T14:02:58;8.98;;;6.20;;
61702;SDS011;47622;47.726;3.298;2023-05-28T14:05:24;11.25;;;5.72;;
61702;SDS011;47622;47.726;3.298;2023-05-28T14:07:49;7.90;;;5.10;;
61702;SDS011;47622;47.726;3.298;2023-05-28T14:10:15;8.70;;;5.70;;
61702;SDS011;47622;47.726;3.298;2023-05-28T14:12:40;9.77;;;4.85;;
61702;SDS011;47622;47.726;3.298;2023-05-28T14:15:07;9.38;;;6.13;;
61702;SDS011;47622;47.726;3.298;2023-05-28T14:17:33;11.73;;;5.68;;
61702;SDS011;47622;47.726;3.298;2023-05-28T14:20:00;10.77;;;5.72;;
61702;SDS011;47622;47.726;3.298;2023-05-28T14:22:25;8.23;;;5.40;;
61702;SDS011;47622;47.726;3.298;2023-05-28T14:24:51;11.07;;;5.60;;
61702;SDS011;47622;47.726;3.298;2023-05-28T14:27:17;7.95;;;5.50;;
61702;SDS011;47622;47.726;3.298;2023-05-28T14:29:42;8.05;;;5.53;;
61702;SDS011;47622;47.726;3.298;2023-05-28T14:32:08;6.75;;;5.13;;
61702;SDS011;47622;47.726;3.298;2023-05-28T14:34:33;9.65;;;5.45;;
61702;SDS011;47622;47.726;3.298;2023-05-28T14:36:59;9.05;;;5.70;;
61702;SDS011;47622;47.726;3.298;2023-05-28T14:39:25;7.72;;;5.38;;
61702;SDS011;47622;47.726;3.298;2023-05-28T14:41:50;9.35;;;5.85;;
61702;SDS011;47622;47.726;3.298;2023-05-28T14:44:16;9.32;;;5.47;;
61702;SDS011;47622;47.726;3.298;2023-05-28T14:46:41;9.13;;;5.72;;
61702;SDS011;47622;47.726;3.298;2023-05-28T14:49:07;8.45;;;5.60;;
61702;SDS011;47622;47.726;3.298;2023-05-28T14:51:32;7.30;;;5.20;;
61702;SDS011;47622;47.726;3.298;2023-05-28T14:53:59;9.25;;;5.35;;
61702;SDS011;47622;47.726;3.298;2023-05-28T14:56:24;9.75;;;5.72;;
61702;SDS011;47622;47.726;3.298;2023-05-28T14:58:51;7.75;;;5.45;;
61702;SDS011;47622;47.726;3.298;2023-05-28T15:01:18;8.90;;;5.45;;
61702;SDS011;47622;47.726;3.298;2023-05-28T15:03:43;9.32;;;5.40;;
61702;SDS011;47622;47.726;3.298;2023-05-28T15:06:09;9.38;;;5.95;;
61702;SDS011;47622;47.726;3.298;2023-05-28T15:08:36;11.18;;;5.70;;
61702;SDS011;47622;47.726;3.298;2023-05-28T15:11:02;8.18;;;5.43;;
61702;SDS011;47622;47.726;3.298;2023-05-28T15:13:28;11.20;;;6.03;;
61702;SDS011;47622;47.726;3.298;2023-05-28T15:15:54;9.52;;;5.80;;
61702;SDS011;47622;47.726;3.298;2023-05-28T15:18:20;10.52;;;5.40;;
61702;SDS011;47622;47.726;3.298;2023-05-28T15:20:45;11.25;;;5.90;;
61702;SDS011;47622;47.726;3.298;2023-05-28T15:23:11;11.20;;;5.50;;